Hilde A — TCXV7 — position and weather

sailwx.info

Track history (hours):
 
Tides and Currents Weather Stations Pressure Air Temp Water Temp Dewpoint Dewpoint Depression Visibility Wind Speed Wind Dir Waves Ship Positions

Hilde A

Last reported at 2017-Oct-14 08:15 UTC. Time now 2017-Oct-17 16:57 UTC.
Position N 35°60' E 030°54'.

Length 184 m; draft 9 m.

Type: Ship (hazmat cat B). MMSI: 271040403.

Date/timePositionNaut miles runAvg speedWind from/ knotsBaromVisibWave heightAir tempDewpointWater temp
2017-Oct-14 08:15N 35°60' E 030°54'413.9
2017-Oct-14 08:00N 35°60' E 030°49'714.0
2017-Oct-14 07:29N 35°60' E 030°41'713.9
2017-Oct-14 06:59N 36°00' E 030°32'23812.8
2017-Oct-13 12:25N 37°26' E 025°56'613.6
2017-Oct-13 12:00N 37°30' E 025°50'714.0
2017-Oct-13 11:30N 37°37' E 025°49'713.7
2017-Oct-13 10:58N 37°44' E 025°49'10913.6
2017-Oct-13 02:59N 39°33' E 025°48'713.4
2017-Oct-13 02:27N 39°40' E 025°50'1613.4
2017-Oct-13 01:14N 39°56' E 025°55'173 6.7
2017-Oct-11 23:21N 40°46' E 029°32'0 1.4
2017-Oct-11 23:00N 40°45' E 029°32'3 5.3
2017-Oct-11 22:30N 40°45' E 029°28'612.1
2017-Oct-11 22:00N 40°44' E 029°21'510.5
2017-Oct-11 21:30N 40°44' E 029°14'612.0
2017-Oct-11 21:00N 40°44' E 029°06'4 8.8
2017-Oct-11 20:30N 40°44' E 028°60'4 8.3
2017-Oct-11 20:00N 40°45' E 028°54'0 0.2
2017-Oct-11 17:29N 40°45' E 028°55'0 0.4
2017-Oct-11 16:57N 40°45' E 028°55'  
2017-Oct-09 10:24N 37°37' E 023°49'613.9
2017-Oct-09 10:01N 37°39' E 023°42'713.7
2017-Oct-09 09:30N 37°46' E 023°39'713.7
2017-Oct-09 09:00N 37°52' E 023°36'5 9.6
2017-Oct-09 08:30N 37°57' E 023°36'0 0.8
2017-Oct-09 07:59N 37°57' E 023°36'0 0.0
2017-Oct-09 07:29N 37°57' E 023°36'0 0.0
2017-Oct-09 06:59N 37°57' E 023°36'0 0.0
2017-Oct-09 06:29N 37°57' E 023°36'0 0.0
2017-Oct-09 05:58N 37°57' E 023°36'0 0.0
2017-Oct-09 05:28N 37°57' E 023°36'0 0.0
2017-Oct-09 04:58N 37°57' E 023°36'0 0.0
2017-Oct-09 04:28N 37°57' E 023°36'0 0.0
2017-Oct-09 04:01N 37°57' E 023°36'0 0.0
2017-Oct-09 03:30N 37°57' E 023°36'0 0.0
2017-Oct-09 03:00N 37°57' E 023°36'0 0.0
2017-Oct-09 02:30N 37°57' E 023°36'0 0.0
2017-Oct-09 02:00N 37°57' E 023°36'0 0.0
2017-Oct-09 01:29N 37°57' E 023°36'0 0.0
2017-Oct-09 00:59N 37°57' E 023°36'0 0.0
2017-Oct-09 00:29N 37°57' E 023°36'0 0.0
2017-Oct-08 23:59N 37°57' E 023°36'0 0.0
2017-Oct-08 23:29N 37°57' E 023°36'0 0.0
2017-Oct-08 22:58N 37°57' E 023°36'0 0.0
2017-Oct-08 22:28N 37°57' E 023°36'0 0.0
2017-Oct-08 21:58N 37°57' E 023°36'0 0.0
2017-Oct-08 21:28N 37°57' E 023°36'1 1.9
2017-Oct-08 21:00N 37°57' E 023°36'1 2.0
2017-Oct-08 20:30N 37°56' E 023°37'1 1.8
2017-Oct-08 20:00N 37°55' E 023°36'0 0.6
2017-Oct-08 19:30N 37°55' E 023°36'1 1.4
2017-Oct-08 19:00N 37°54' E 023°35'3 5.5
2017-Oct-08 18:30N 37°52' E 023°33'2 4.1
2017-Oct-08 18:00N 37°52' E 023°31'0 0.2
2017-Oct-08 17:30N 37°52' E 023°31'0 0.1
2017-Oct-08 17:00N 37°52' E 023°31'0 0.0
2017-Oct-08 16:26N 37°52' E 023°31'0 0.1
2017-Oct-08 15:56N 37°52' E 023°31'0 0.0
2017-Oct-08 15:29N 37°52' E 023°31'0 0.0
2017-Oct-08 14:59N 37°52' E 023°31'0 0.0
2017-Oct-08 14:29N 37°52' E 023°31'0 0.0
2017-Oct-08 13:58N 37°52' E 023°31'0 0.0
2017-Oct-08 13:28N 37°52' E 023°31'0 0.1
2017-Oct-08 12:58N 37°52' E 023°31'0 0.0
2017-Oct-08 12:28N 37°52' E 023°31'0 0.0
2017-Oct-08 12:00N 37°52' E 023°31'0 0.0
2017-Oct-08 11:30N 37°52' E 023°31'0 0.0
2017-Oct-08 11:00N 37°52' E 023°31'0 0.0
2017-Oct-08 10:30N 37°52' E 023°31'0 0.0
2017-Oct-08 10:00N 37°52' E 023°31'0 0.0
2017-Oct-08 09:29N 37°52' E 023°31'0 0.0
2017-Oct-08 08:59N 37°52' E 023°31'0 0.0
2017-Oct-08 08:29N 37°52' E 023°31'0 0.1
2017-Oct-08 07:59N 37°52' E 023°31'0 0.0
2017-Oct-08 07:29N 37°52' E 023°31'0 0.0
2017-Oct-08 06:58N 37°52' E 023°31'0 0.0
2017-Oct-08 06:28N 37°52' E 023°31'0 0.0
2017-Oct-08 05:58N 37°52' E 023°31'0 0.0
2017-Oct-08 05:28N 37°52' E 023°31'0 0.0
2017-Oct-08 05:00N 37°52' E 023°31'0 0.0
2017-Oct-08 04:30N 37°52' E 023°31'0 0.0
2017-Oct-08 04:00N 37°52' E 023°31'0 0.0
2017-Oct-08 03:30N 37°52' E 023°31'0 0.0
2017-Oct-08 03:00N 37°52' E 023°31'0 0.0
2017-Oct-08 02:29N 37°52' E 023°31'0 0.0
2017-Oct-08 01:59N 37°52' E 023°31'0 0.1
2017-Oct-08 01:29N 37°52' E 023°31'0 0.0
2017-Oct-08 00:59N 37°52' E 023°31'0 0.0
2017-Oct-08 00:28N 37°52' E 023°31'0 0.1
2017-Oct-07 23:58N 37°52' E 023°31'0 0.0
2017-Oct-07 23:28N 37°52' E 023°31'0 0.0
2017-Oct-07 22:58N 37°52' E 023°31'0 0.0
2017-Oct-07 22:28N 37°52' E 023°31'0 0.1
2017-Oct-07 22:00N 37°52' E 023°31'0 0.1
2017-Oct-07 21:30N 37°52' E 023°31'0 0.0
2017-Oct-07 21:00N 37°52' E 023°31'0 0.0
2017-Oct-07 20:30N 37°52' E 023°31'0 0.1
2017-Oct-07 20:00N 37°52' E 023°31'0 1.0
2017-Oct-07 19:30N 37°52' E 023°31'4 8.8
2017-Oct-07 19:00N 37°51' E 023°37'2 3.8
2017-Oct-07 18:30N 37°51' E 023°39'4 8.6
2017-Oct-07 18:00N 37°47' E 023°42'611.9
2017-Oct-07 17:30N 37°41' E 023°45'611.2
2017-Oct-07 17:00N 37°36' E 023°44'612.2
2017-Oct-07 16:30N 37°30' E 023°42'612.6
2017-Oct-07 16:00N 37°24' E 023°40'712.9
2017-Oct-07 15:28N 37°17' E 023°37'613.2
2017-Oct-07 14:58N 37°12' E 023°33'613.3
2017-Oct-07 14:30N 37°06' E 023°29'713.2
2017-Oct-07 13:57N 36°60' E 023°24'35112.9
2017-Oct-06 10:44N 37°47' E 016°06'414.4
2017-Oct-06 10:29N 37°48' E 016°02'714.9
2017-Oct-06 10:00N 37°50' E 015°53'715.0
2017-Oct-06 09:30N 37°52' E 015°44'714.4
2017-Oct-06 09:00N 37°57' E 015°36'713.9
2017-Oct-06 08:31N 38°03' E 015°34'713.6
2017-Oct-06 08:00N 38°10' E 015°35'713.2
2017-Oct-06 07:30N 38°16' E 015°40'4 7.9
2017-Oct-06 07:00N 38°20' E 015°40'3 5.0
2017-Oct-06 06:30N 38°22' E 015°39'3 6.9
2017-Oct-06 06:00N 38°25' E 015°37'3 6.8
2017-Oct-06 05:30N 38°28' E 015°35'4 7.3
2017-Oct-06 05:00N 38°32' E 015°33'713.4
2017-Oct-06 04:30N 38°38' E 015°31'714.1
2017-Oct-06 04:00N 38°45' E 015°28'714.0
2017-Oct-06 03:30N 38°51' E 015°24'714.1
2017-Oct-06 02:59N 38°58' E 015°21'714.0
2017-Oct-06 02:30N 39°04' E 015°18'713.9
2017-Oct-06 02:00N 39°11' E 015°15'1514.1
2017-Oct-06 00:59N 39°24' E 015°08'3514.4
2017-Oct-05 22:34N 39°57' E 014°52'40 2.4
2017-Oct-05 06:18N 40°30' E 014°24'19911.9
2017-Oct-04 13:35N 42°21' E 010°43'112.3
2017-Oct-04 13:30N 42°21' E 010°42'712.6
2017-Oct-04 12:58N 42°26' E 010°35'812.6
2017-Oct-04 12:22N 42°30' E 010°27'612.4
2017-Oct-04 11:55N 42°34' E 010°21'1312.3
2017-Oct-04 10:54N 42°41' E 010°07'513.2
2017-Oct-04 10:31N 42°45' E 010°02'714.2
2017-Oct-04 10:00N 42°52' E 010°01'713.6
2017-Oct-04 09:30N 42°59' E 010°00'713.6
2017-Oct-04 09:00N 43°05' E 009°58'713.6
2017-Oct-04 08:29N 43°12' E 009°54'  
Track history (hours):
 
Tides and Currents Weather Stations Pressure Air Temp Water Temp Dewpoint Dewpoint Depression Visibility Wind Speed Wind Dir Waves Ship Positions

Hilde A

Last reported at 2017-Oct-14 08:15 UTC. Time now 2017-Oct-17 16:57 UTC.
Position N 35°60' E 030°54'.

Length 184 m; draft 9 m.

Type: Ship (hazmat cat B). MMSI: 271040403.

Date/timePositionNaut miles runAvg speedWind from/ knotsBaromVisibWave heightAir tempDewpointWater temp
2017-Oct-14 08:15N 35°60' E 030°54'413.9
2017-Oct-14 08:00N 35°60' E 030°49'714.0
2017-Oct-14 07:29N 35°60' E 030°41'713.9
2017-Oct-14 06:59N 36°00' E 030°32'23812.8
2017-Oct-13 12:25N 37°26' E 025°56'613.6
2017-Oct-13 12:00N 37°30' E 025°50'714.0
2017-Oct-13 11:30N 37°37' E 025°49'713.7
2017-Oct-13 10:58N 37°44' E 025°49'10913.6
2017-Oct-13 02:59N 39°33' E 025°48'713.4
2017-Oct-13 02:27N 39°40' E 025°50'1613.4
2017-Oct-13 01:14N 39°56' E 025°55'173 6.7
2017-Oct-11 23:21N 40°46' E 029°32'0 1.4
2017-Oct-11 23:00N 40°45' E 029°32'3 5.3
2017-Oct-11 22:30N 40°45' E 029°28'612.1
2017-Oct-11 22:00N 40°44' E 029°21'510.5
2017-Oct-11 21:30N 40°44' E 029°14'612.0
2017-Oct-11 21:00N 40°44' E 029°06'4 8.8
2017-Oct-11 20:30N 40°44' E 028°60'4 8.3
2017-Oct-11 20:00N 40°45' E 028°54'0 0.2
2017-Oct-11 17:29N 40°45' E 028°55'0 0.4
2017-Oct-11 16:57N 40°45' E 028°55'  
2017-Oct-09 10:24N 37°37' E 023°49'613.9
2017-Oct-09 10:01N 37°39' E 023°42'713.7
2017-Oct-09 09:30N 37°46' E 023°39'713.7
2017-Oct-09 09:00N 37°52' E 023°36'5 9.6
2017-Oct-09 08:30N 37°57' E 023°36'0 0.8
2017-Oct-09 07:59N 37°57' E 023°36'0 0.0
2017-Oct-09 07:29N 37°57' E 023°36'0 0.0
2017-Oct-09 06:59N 37°57' E 023°36'0 0.0
2017-Oct-09 06:29N 37°57' E 023°36'0 0.0
2017-Oct-09 05:58N 37°57' E 023°36'0 0.0
2017-Oct-09 05:28N 37°57' E 023°36'0 0.0
2017-Oct-09 04:58N 37°57' E 023°36'0 0.0
2017-Oct-09 04:28N 37°57' E 023°36'0 0.0
2017-Oct-09 04:01N 37°57' E 023°36'0 0.0
2017-Oct-09 03:30N 37°57' E 023°36'0 0.0
2017-Oct-09 03:00N 37°57' E 023°36'0 0.0
2017-Oct-09 02:30N 37°57' E 023°36'0 0.0
2017-Oct-09 02:00N 37°57' E 023°36'0 0.0
2017-Oct-09 01:29N 37°57' E 023°36'0 0.0
2017-Oct-09 00:59N 37°57' E 023°36'0 0.0
2017-Oct-09 00:29N 37°57' E 023°36'0 0.0
2017-Oct-08 23:59N 37°57' E 023°36'0 0.0
2017-Oct-08 23:29N 37°57' E 023°36'0 0.0
2017-Oct-08 22:58N 37°57' E 023°36'0 0.0
2017-Oct-08 22:28N 37°57' E 023°36'0 0.0
2017-Oct-08 21:58N 37°57' E 023°36'0 0.0
2017-Oct-08 21:28N 37°57' E 023°36'1 1.9
2017-Oct-08 21:00N 37°57' E 023°36'1 2.0
2017-Oct-08 20:30N 37°56' E 023°37'1 1.8
2017-Oct-08 20:00N 37°55' E 023°36'0 0.6
2017-Oct-08 19:30N 37°55' E 023°36'1 1.4
2017-Oct-08 19:00N 37°54' E 023°35'3 5.5
2017-Oct-08 18:30N 37°52' E 023°33'2 4.1
2017-Oct-08 18:00N 37°52' E 023°31'0 0.2
2017-Oct-08 17:30N 37°52' E 023°31'0 0.1
2017-Oct-08 17:00N 37°52' E 023°31'0 0.0
2017-Oct-08 16:26N 37°52' E 023°31'0 0.1
2017-Oct-08 15:56N 37°52' E 023°31'0 0.0
2017-Oct-08 15:29N 37°52' E 023°31'0 0.0
2017-Oct-08 14:59N 37°52' E 023°31'0 0.0
2017-Oct-08 14:29N 37°52' E 023°31'0 0.0
2017-Oct-08 13:58N 37°52' E 023°31'0 0.0
2017-Oct-08 13:28N 37°52' E 023°31'0 0.1
2017-Oct-08 12:58N 37°52' E 023°31'0 0.0
2017-Oct-08 12:28N 37°52' E 023°31'0 0.0
2017-Oct-08 12:00N 37°52' E 023°31'0 0.0
2017-Oct-08 11:30N 37°52' E 023°31'0 0.0
2017-Oct-08 11:00N 37°52' E 023°31'0 0.0
2017-Oct-08 10:30N 37°52' E 023°31'0 0.0
2017-Oct-08 10:00N 37°52' E 023°31'0 0.0
2017-Oct-08 09:29N 37°52' E 023°31'0 0.0
2017-Oct-08 08:59N 37°52' E 023°31'0 0.0
2017-Oct-08 08:29N 37°52' E 023°31'0 0.1
2017-Oct-08 07:59N 37°52' E 023°31'0 0.0
2017-Oct-08 07:29N 37°52' E 023°31'0 0.0
2017-Oct-08 06:58N 37°52' E 023°31'0 0.0
2017-Oct-08 06:28N 37°52' E 023°31'0 0.0
2017-Oct-08 05:58N 37°52' E 023°31'0 0.0
2017-Oct-08 05:28N 37°52' E 023°31'0 0.0
2017-Oct-08 05:00N 37°52' E 023°31'0 0.0
2017-Oct-08 04:30N 37°52' E 023°31'0 0.0
2017-Oct-08 04:00N 37°52' E 023°31'0 0.0
2017-Oct-08 03:30N 37°52' E 023°31'0 0.0
2017-Oct-08 03:00N 37°52' E 023°31'0 0.0
2017-Oct-08 02:29N 37°52' E 023°31'0 0.0
2017-Oct-08 01:59N 37°52' E 023°31'0 0.1
2017-Oct-08 01:29N 37°52' E 023°31'0 0.0
2017-Oct-08 00:59N 37°52' E 023°31'0 0.0
2017-Oct-08 00:28N 37°52' E 023°31'0 0.1
2017-Oct-07 23:58N 37°52' E 023°31'0 0.0
2017-Oct-07 23:28N 37°52' E 023°31'0 0.0
2017-Oct-07 22:58N 37°52' E 023°31'0 0.0
2017-Oct-07 22:28N 37°52' E 023°31'0 0.1
2017-Oct-07 22:00N 37°52' E 023°31'0 0.1
2017-Oct-07 21:30N 37°52' E 023°31'0 0.0
2017-Oct-07 21:00N 37°52' E 023°31'0 0.0
2017-Oct-07 20:30N 37°52' E 023°31'0 0.1
2017-Oct-07 20:00N 37°52' E 023°31'0 1.0
2017-Oct-07 19:30N 37°52' E 023°31'4 8.8
2017-Oct-07 19:00N 37°51' E 023°37'2 3.8
2017-Oct-07 18:30N 37°51' E 023°39'4 8.6
2017-Oct-07 18:00N 37°47' E 023°42'611.9
2017-Oct-07 17:30N 37°41' E 023°45'611.2
2017-Oct-07 17:00N 37°36' E 023°44'612.2
2017-Oct-07 16:30N 37°30' E 023°42'612.6
2017-Oct-07 16:00N 37°24' E 023°40'712.9
2017-Oct-07 15:28N 37°17' E 023°37'613.2
2017-Oct-07 14:58N 37°12' E 023°33'613.3
2017-Oct-07 14:30N 37°06' E 023°29'713.2
2017-Oct-07 13:57N 36°60' E 023°24'35112.9
2017-Oct-06 10:44N 37°47' E 016°06'414.4
2017-Oct-06 10:29N 37°48' E 016°02'714.9
2017-Oct-06 10:00N 37°50' E 015°53'715.0
2017-Oct-06 09:30N 37°52' E 015°44'714.4
2017-Oct-06 09:00N 37°57' E 015°36'713.9
2017-Oct-06 08:31N 38°03' E 015°34'713.6
2017-Oct-06 08:00N 38°10' E 015°35'713.2
2017-Oct-06 07:30N 38°16' E 015°40'4 7.9
2017-Oct-06 07:00N 38°20' E 015°40'3 5.0
2017-Oct-06 06:30N 38°22' E 015°39'3 6.9
2017-Oct-06 06:00N 38°25' E 015°37'3 6.8
2017-Oct-06 05:30N 38°28' E 015°35'4 7.3
2017-Oct-06 05:00N 38°32' E 015°33'713.4
2017-Oct-06 04:30N 38°38' E 015°31'714.1
2017-Oct-06 04:00N 38°45' E 015°28'714.0
2017-Oct-06 03:30N 38°51' E 015°24'714.1
2017-Oct-06 02:59N 38°58' E 015°21'714.0
2017-Oct-06 02:30N 39°04' E 015°18'713.9
2017-Oct-06 02:00N 39°11' E 015°15'1514.1
2017-Oct-06 00:59N 39°24' E 015°08'3514.4
2017-Oct-05 22:34N 39°57' E 014°52'40 2.4
2017-Oct-05 06:18N 40°30' E 014°24'19911.9
2017-Oct-04 13:35N 42°21' E 010°43'112.3
2017-Oct-04 13:30N 42°21' E 010°42'712.6
2017-Oct-04 12:58N 42°26' E 010°35'812.6
2017-Oct-04 12:22N 42°30' E 010°27'612.4
2017-Oct-04 11:55N 42°34' E 010°21'1312.3
2017-Oct-04 10:54N 42°41' E 010°07'513.2
2017-Oct-04 10:31N 42°45' E 010°02'714.2
2017-Oct-04 10:00N 42°52' E 010°01'713.6
2017-Oct-04 09:30N 42°59' E 010°00'713.6
2017-Oct-04 09:00N 43°05' E 009°58'713.6
2017-Oct-04 08:29N 43°12' E 009°54'  

Dump ship's entire track history